createdAt,value
2023-06-04T00:01:25.071Z,44.22
2023-06-04T00:04:28.268Z,44.84
2023-06-04T00:07:30.906Z,45.15
2023-06-04T00:10:35.042Z,44.45
2023-06-04T00:13:37.464Z,43.80
2023-06-04T00:16:41.975Z,43.72
2023-06-04T00:19:44.436Z,44.02
2023-06-04T00:22:47.658Z,44.24
2023-06-04T00:25:50.076Z,43.14
2023-06-04T00:28:53.025Z,42.99
2023-06-04T00:31:55.747Z,43.07
2023-06-04T00:34:59.227Z,43.28
2023-06-04T00:38:01.617Z,43.47
2023-06-04T00:41:04.833Z,43.34
2023-06-04T00:44:07.829Z,43.03
2023-06-04T00:47:17.604Z,43.08
2023-06-04T00:50:22.066Z,42.05
2023-06-04T00:53:25.715Z,42.45
2023-06-04T00:56:28.032Z,43.21
2023-06-04T00:59:33.461Z,42.67
2023-06-04T01:02:36.980Z,42.81
2023-06-04T01:05:44.779Z,42.73
2023-06-04T01:08:48.759Z,42.71
2023-06-04T01:11:51.633Z,42.76
2023-06-04T01:14:54.024Z,43.72
2023-06-04T01:18:04.233Z,43.41
2023-06-04T01:21:09.034Z,42.56
2023-06-04T01:24:11.984Z,43.14
2023-06-04T01:27:16.935Z,42.47
2023-06-04T01:30:24.924Z,43.75
2023-06-04T01:33:27.337Z,42.76
2023-06-04T01:36:30.424Z,42.45
2023-06-04T01:39:32.865Z,42.57
2023-06-04T01:42:36.523Z,42.33
2023-06-04T01:45:38.956Z,43.36
2023-06-04T01:48:42.055Z,42.82
2023-06-04T01:51:44.436Z,42.10
2023-06-04T01:54:47.357Z,42.09
2023-06-04T01:57:49.709Z,42.38
2023-06-04T02:00:54.096Z,42.23
2023-06-04T02:03:56.975Z,42.32
2023-06-04T02:07:00.606Z,42.58
2023-06-04T02:10:03.610Z,42.52
2023-06-04T02:13:07.619Z,42.81
2023-06-04T02:16:10.513Z,42.60
2023-06-04T02:19:14.688Z,42.73
2023-06-04T02:22:20.815Z,42.60
2023-06-04T02:25:24.607Z,43.44
2023-06-04T02:28:27.324Z,43.51
2023-06-04T02:31:29.966Z,43.98
2023-06-04T02:34:32.573Z,43.80
2023-06-04T02:37:35.327Z,43.26
2023-06-04T02:40:38.193Z,43.60
2023-06-04T02:43:40.920Z,43.49
2023-06-04T02:46:44.473Z,44.57
2023-06-04T02:49:47.735Z,43.89
2023-06-04T02:52:50.753Z,43.57
2023-06-04T02:55:53.955Z,43.54
2023-06-04T02:58:57.090Z,43.20
2023-06-04T03:02:00.096Z,43.66
2023-06-04T03:05:03.588Z,43.84
2023-06-04T03:08:06.402Z,43.67
2023-06-04T03:11:09.427Z,44.50
2023-06-04T03:14:12.179Z,44.71
2023-06-04T03:17:14.784Z,44.30
2023-06-04T03:20:17.910Z,44.61
2023-06-04T03:23:21.014Z,44.97
2023-06-04T03:26:23.757Z,45.34
2023-06-04T03:29:26.352Z,45.46
2023-06-04T03:32:29.468Z,45.84
2023-06-04T03:35:32.442Z,45.01
2023-06-04T03:38:36.359Z,45.41
2023-06-04T03:41:39.722Z,44.90
2023-06-04T03:44:43.409Z,45.04
2023-06-04T03:47:46.922Z,44.95
2023-06-04T03:50:50.701Z,45.20
2023-06-04T03:53:53.548Z,45.04
2023-06-04T03:56:56.580Z,44.40
2023-06-04T03:59:59.434Z,44.30
2023-06-04T04:03:02.494Z,44.60
2023-06-04T04:06:05.755Z,45.04
2023-06-04T04:09:08.464Z,45.70
2023-06-04T04:12:11.402Z,45.68
2023-06-04T04:15:14.421Z,45.10
2023-06-04T04:18:18.140Z,45.61
2023-06-04T04:21:22.101Z,46.13
2023-06-04T04:24:28.531Z,46.47
2023-06-04T04:27:32.286Z,46.79
2023-06-04T04:30:36.165Z,46.88
2023-06-04T04:33:40.887Z,46.95
2023-06-04T04:36:53.052Z,47.27
2023-06-04T04:39:56.141Z,47.53
2023-06-04T04:42:59.249Z,47.33
2023-06-04T04:46:02.287Z,46.60
2023-06-04T04:49:05.015Z,46.72
2023-06-04T04:52:07.740Z,45.96
2023-06-04T04:55:12.997Z,45.02
2023-06-04T04:58:16.637Z,45.18
2023-06-04T05:01:19.486Z,44.90
2023-06-04T05:04:22.215Z,44.04
2023-06-04T05:07:26.030Z,43.73
2023-06-04T05:10:29.667Z,43.32
2023-06-04T05:13:33.061Z,43.27
2023-06-04T05:16:40.676Z,43.20
2023-06-04T05:19:45.891Z,42.63
2023-06-04T05:22:48.616Z,42.81
2023-06-04T05:25:51.699Z,42.75
2023-06-04T05:28:56.633Z,42.39
2023-06-04T05:32:01.174Z,42.37
2023-06-04T05:35:05.769Z,42.25
2023-06-04T05:38:09.331Z,41.69
2023-06-04T05:41:13.182Z,41.13
2023-06-04T05:44:17.582Z,41.03
2023-06-04T05:47:20.714Z,41.24
2023-06-04T05:50:23.625Z,41.48
2023-06-04T05:53:26.875Z,41.47
2023-06-04T05:56:29.812Z,41.95
2023-06-04T05:59:33.280Z,41.18
2023-06-04T06:02:36.324Z,40.74
2023-06-04T06:05:39.547Z,40.84
2023-06-04T06:08:41.901Z,41.04
2023-06-04T06:11:46.247Z,41.08
2023-06-04T06:14:49.520Z,40.62
2023-06-04T06:17:52.652Z,40.68
2023-06-04T06:20:55.261Z,39.96
2023-06-04T06:23:58.827Z,39.54
2023-06-04T06:27:01.375Z,39.41
2023-06-04T06:30:05.013Z,39.16
2023-06-04T06:33:07.692Z,37.96
2023-06-04T06:36:13.881Z,38.24
2023-06-04T06:39:17.098Z,37.19
2023-06-04T06:42:20.918Z,38.33
2023-06-04T06:45:24.833Z,38.31
2023-06-04T06:48:27.764Z,38.03
2023-06-04T06:51:30.168Z,36.43
2023-06-04T06:54:33.083Z,37.51
2023-06-04T06:57:35.706Z,37.84
2023-06-04T07:00:38.815Z,37.65
2023-06-04T07:03:41.367Z,38.41
2023-06-04T07:06:44.379Z,37.90
2023-06-04T07:09:47.149Z,36.25
2023-06-04T07:12:50.165Z,36.85
2023-06-04T07:15:52.479Z,37.32
2023-06-04T07:18:55.357Z,37.17
2023-06-04T07:21:57.768Z,37.40
2023-06-04T07:25:00.659Z,35.92
2023-06-04T07:28:05.055Z,35.06
2023-06-04T07:31:08.210Z,35.37
2023-06-04T07:34:10.715Z,36.46
2023-06-04T07:37:14.973Z,36.30
2023-06-04T07:40:17.981Z,36.65
2023-06-04T07:43:20.910Z,36.40
2023-06-04T07:46:23.427Z,35.25
2023-06-04T07:49:26.315Z,36.15
2023-06-04T07:52:28.664Z,32.29
2023-06-04T07:55:32.945Z,35.91
2023-06-04T07:58:35.608Z,32.52
2023-06-04T08:01:38.497Z,32.01
2023-06-04T08:04:41.687Z,31.88
2023-06-04T08:07:44.458Z,34.74
2023-06-04T08:10:47.141Z,34.47
2023-06-04T08:13:50.170Z,35.19
2023-06-04T08:16:53.005Z,34.72
2023-06-04T08:19:57.275Z,33.58
2023-06-04T08:22:59.877Z,32.13
2023-06-04T08:26:02.829Z,33.89
2023-06-04T08:29:05.761Z,33.37
2023-06-04T08:32:08.986Z,34.26
2023-06-04T08:35:11.901Z,34.13
2023-06-04T08:38:14.501Z,33.36
2023-06-04T08:41:21.473Z,31.17
2023-06-04T08:44:24.041Z,31.65
2023-06-04T08:47:29.636Z,30.52
2023-06-04T08:50:33.729Z,30.73
2023-06-04T08:53:37.806Z,27.41
2023-06-04T08:56:40.506Z,27.39
2023-06-04T08:59:43.161Z,28.54
2023-06-04T09:02:46.203Z,27.94
2023-06-04T09:05:50.534Z,27.66
2023-06-04T09:08:58.122Z,29.27
2023-06-04T09:12:02.710Z,29.15
2023-06-04T09:15:05.488Z,30.24
2023-06-04T09:18:08.161Z,29.31
2023-06-04T09:21:10.939Z,29.40
2023-06-04T09:24:13.560Z,31.66
2023-06-04T09:27:20.167Z,30.40
2023-06-04T09:30:23.304Z,31.48
2023-06-04T09:33:27.718Z,30.89
2023-06-04T09:36:34.378Z,30.18
2023-06-04T09:39:37.310Z,32.58
2023-06-04T09:42:43.867Z,32.53
2023-06-04T09:45:47.845Z,30.37
2023-06-04T09:49:00.192Z,30.83
2023-06-04T09:52:02.795Z,31.42
2023-06-04T09:55:16.053Z,30.50
2023-06-04T09:58:19.513Z,31.98
2023-06-04T10:01:24.226Z,31.60
2023-06-04T10:04:28.635Z,31.12
2023-06-04T10:07:31.490Z,32.83
2023-06-04T10:10:36.718Z,32.15
2023-06-04T10:13:41.931Z,31.78
2023-06-04T10:16:45.112Z,33.60
2023-06-04T10:19:50.831Z,32.78
2023-06-04T10:22:54.250Z,33.36
2023-06-04T10:25:57.332Z,32.12
2023-06-04T10:29:01.590Z,32.46
2023-06-04T10:32:04.497Z,32.97
2023-06-04T10:35:10.528Z,32.78
2023-06-04T10:38:14.683Z,33.42
2023-06-04T10:41:18.472Z,33.69
2023-06-04T10:44:21.207Z,32.56
2023-06-04T10:47:27.851Z,32.26
2023-06-04T10:50:30.366Z,31.75
2023-06-04T10:53:37.690Z,31.14
2023-06-04T10:56:40.086Z,31.89
2023-06-04T10:59:42.939Z,30.76
2023-06-04T11:02:57.709Z,31.41
2023-06-04T11:06:00.775Z,34.75
2023-06-04T11:09:06.870Z,33.17
2023-06-04T11:12:09.755Z,31.34
2023-06-04T11:15:12.636Z,33.17
2023-06-04T11:18:16.534Z,32.04
2023-06-04T11:21:18.924Z,32.06
2023-06-04T11:24:21.892Z,31.90
2023-06-04T11:27:35.674Z,31.86
2023-06-04T11:30:39.667Z,31.41
2023-06-04T11:33:45.434Z,33.49
2023-06-04T11:36:50.836Z,29.82
2023-06-04T11:39:53.190Z,29.96
2023-06-04T11:42:56.159Z,31.12
2023-06-04T11:45:59.023Z,32.63
2023-06-04T11:49:02.990Z,33.46
2023-06-04T11:52:05.565Z,34.67
2023-06-04T11:55:12.182Z,31.30
2023-06-04T11:58:14.658Z,33.15
2023-06-04T12:01:18.192Z,31.87
2023-06-04T12:04:20.830Z,31.43
2023-06-04T12:07:25.451Z,31.15
2023-06-04T12:10:29.877Z,32.97
2023-06-04T12:13:38.277Z,31.38
2023-06-04T12:16:41.545Z,32.70
2023-06-04T12:19:49.404Z,34.59
2023-06-04T12:22:53.319Z,33.67
2023-06-04T12:25:56.766Z,35.67
2023-06-04T12:29:13.478Z,36.52
2023-06-04T12:32:16.556Z,35.72
2023-06-04T12:35:20.618Z,33.27
2023-06-04T12:38:23.689Z,35.52
2023-06-04T12:41:27.179Z,35.72
2023-06-04T12:44:30.385Z,36.24
2023-06-04T12:47:32.968Z,35.77
2023-06-04T12:50:36.295Z,36.25
2023-06-04T12:53:45.208Z,34.71
2023-06-04T12:56:47.834Z,34.06
2023-06-04T12:59:50.501Z,34.46
2023-06-04T13:02:53.211Z,34.60
2023-06-04T13:05:55.976Z,35.49
2023-06-04T13:08:58.636Z,35.92
2023-06-04T13:12:01.326Z,34.55
2023-06-04T13:15:04.317Z,35.15
2023-06-04T13:18:07.093Z,35.69
2023-06-04T13:21:09.879Z,33.55
2023-06-04T13:24:12.755Z,35.69
2023-06-04T13:27:15.534Z,35.78
2023-06-04T13:30:18.958Z,34.86
2023-06-04T13:33:22.643Z,32.65
2023-06-04T13:36:25.245Z,33.11
2023-06-04T13:39:28.295Z,33.99
2023-06-04T13:42:31.060Z,32.37
2023-06-04T13:45:33.746Z,33.91
2023-06-04T13:48:36.324Z,31.94
2023-06-04T13:51:38.965Z,32.00
2023-06-04T13:54:41.927Z,31.35
2023-06-04T13:57:44.679Z,30.82
2023-06-04T14:00:47.634Z,31.78
2023-06-04T14:03:51.486Z,31.23
2023-06-04T14:06:53.923Z,31.72
2023-06-04T14:09:56.903Z,33.56
2023-06-04T14:12:59.388Z,33.35
2023-06-04T14:16:02.527Z,32.99
2023-06-04T14:19:04.922Z,33.07
2023-06-04T14:22:08.295Z,32.39
2023-06-04T14:25:10.883Z,32.38
2023-06-04T14:28:13.860Z,33.23
2023-06-04T14:31:16.430Z,33.01
2023-06-04T14:34:19.415Z,33.28
2023-06-04T14:37:22.069Z,33.42
2023-06-04T14:40:25.055Z,33.33
2023-06-04T14:43:27.368Z,34.60
2023-06-04T14:46:30.413Z,34.20
2023-06-04T14:49:33.178Z,34.72
2023-06-04T14:52:36.127Z,35.04
2023-06-04T14:55:38.509Z,35.05
2023-06-04T14:58:41.416Z,34.75
2023-06-04T15:01:43.783Z,34.58
2023-06-04T15:04:47.477Z,34.85
2023-06-04T15:07:49.932Z,35.78
2023-06-04T15:10:52.853Z,34.80
2023-06-04T15:13:55.642Z,35.48
2023-06-04T15:16:58.865Z,35.23
2023-06-04T15:20:01.473Z,35.71
2023-06-04T15:23:04.469Z,36.68
2023-06-04T15:26:06.821Z,37.57
2023-06-04T15:29:10.132Z,39.56
2023-06-04T15:32:12.760Z,41.25
2023-06-04T15:35:15.864Z,40.06
2023-06-04T15:38:18.206Z,41.09
2023-06-04T15:41:22.460Z,42.94
2023-06-04T15:44:25.065Z,43.06
2023-06-04T15:47:28.043Z,42.59
2023-06-04T15:50:30.440Z,42.53
2023-06-04T15:53:33.505Z,42.63
2023-06-04T15:56:36.699Z,42.54
2023-06-04T15:59:39.673Z,42.36
2023-06-04T16:02:42.101Z,42.80
2023-06-04T16:05:45.053Z,43.19
2023-06-04T16:08:47.769Z,43.48
2023-06-04T16:11:50.638Z,45.02
2023-06-04T16:14:53.011Z,44.54
2023-06-04T16:17:56.276Z,44.46
2023-06-04T16:20:59.259Z,44.41
2023-06-04T16:24:02.281Z,45.34
2023-06-04T16:27:04.783Z,44.85
2023-06-04T16:30:08.080Z,44.82
2023-06-04T16:33:10.649Z,45.22
2023-06-04T16:36:13.842Z,44.76
2023-06-04T16:39:16.173Z,44.98
2023-06-04T16:42:19.181Z,44.35
2023-06-04T16:45:22.148Z,42.87
2023-06-04T16:48:25.186Z,43.10
2023-06-04T16:51:27.534Z,43.08
2023-06-04T16:54:30.948Z,43.05
2023-06-04T16:57:33.420Z,43.02
2023-06-04T17:00:36.585Z,43.11
2023-06-04T17:03:39.087Z,43.26
2023-06-04T17:06:42.104Z,43.99
2023-06-04T17:09:44.934Z,43.47
2023-06-04T17:12:49.009Z,43.36
2023-06-04T17:15:51.406Z,43.36
2023-06-04T17:18:54.431Z,43.78
2023-06-04T17:21:56.955Z,43.71
2023-06-04T17:25:00.040Z,44.04
2023-06-04T17:28:02.385Z,44.21
2023-06-04T17:31:05.463Z,44.40
2023-06-04T17:34:07.889Z,44.87
2023-06-04T17:37:10.898Z,44.73
2023-06-04T17:40:13.257Z,44.69
2023-06-04T17:43:16.371Z,45.10
2023-06-04T17:46:19.117Z,44.94
2023-06-04T17:49:22.648Z,44.98
2023-06-04T17:52:25.028Z,44.92
2023-06-04T17:55:27.987Z,44.97
2023-06-04T17:58:30.441Z,45.12
2023-06-04T18:01:33.639Z,45.05
2023-06-04T18:04:36.360Z,45.02
2023-06-04T18:07:39.288Z,45.11
2023-06-04T18:10:43.015Z,45.82
2023-06-04T18:13:45.955Z,45.80
2023-06-04T18:16:48.665Z,45.35
2023-06-04T18:19:52.444Z,45.23
2023-06-04T18:22:55.135Z,45.04
2023-06-04T18:25:59.901Z,45.49
2023-06-04T18:29:03.450Z,45.72
2023-06-04T18:32:06.398Z,45.76
2023-06-04T18:35:09.353Z,45.85
2023-06-04T18:38:12.330Z,46.07
2023-06-04T18:41:16.165Z,46.14
2023-06-04T18:44:18.908Z,46.42
2023-06-04T18:47:22.301Z,46.62
2023-06-04T18:50:24.919Z,46.83
2023-06-04T18:53:27.548Z,46.96
2023-06-04T18:56:30.168Z,47.17
2023-06-04T18:59:32.868Z,47.44
2023-06-04T19:02:39.544Z,47.67
2023-06-04T19:05:42.603Z,47.90
2023-06-04T19:08:45.855Z,48.30
2023-06-04T19:11:48.476Z,48.51
2023-06-04T19:14:51.102Z,48.64
2023-06-04T19:17:53.819Z,48.98
2023-06-04T19:20:56.436Z,49.05
2023-06-04T19:23:59.081Z,49.24
2023-06-04T19:27:01.772Z,49.33
2023-06-04T19:30:04.701Z,49.38
2023-06-04T19:33:07.411Z,49.62
2023-06-04T19:36:10.268Z,49.76
2023-06-04T19:39:12.975Z,50.05
2023-06-04T19:42:15.761Z,50.24
2023-06-04T19:45:18.461Z,50.69
2023-06-04T19:48:21.536Z,50.75
2023-06-04T19:51:26.369Z,51.00
2023-06-04T19:54:30.693Z,50.88
2023-06-04T19:57:33.351Z,51.28
2023-06-04T20:00:36.235Z,51.38
2023-06-04T20:03:41.805Z,51.47
2023-06-04T20:06:46.621Z,51.31
2023-06-04T20:09:49.577Z,51.44
2023-06-04T20:12:51.986Z,51.54
2023-06-04T20:15:54.927Z,51.63
2023-06-04T20:18:57.298Z,51.87
2023-06-04T20:22:00.528Z,52.13
2023-06-04T20:25:02.987Z,52.00
2023-06-04T20:28:06.107Z,52.28
2023-06-04T20:31:08.538Z,52.35
2023-06-04T20:34:11.630Z,52.31
2023-06-04T20:37:14.055Z,52.41
2023-06-04T20:40:17.164Z,52.54
2023-06-04T20:43:19.734Z,52.70
2023-06-04T20:46:23.577Z,52.91
2023-06-04T20:49:26.206Z,53.07
2023-06-04T20:52:29.149Z,53.20
2023-06-04T20:55:31.476Z,53.18
2023-06-04T20:58:34.484Z,53.08
2023-06-04T21:01:36.884Z,53.17
2023-06-04T21:04:39.861Z,53.32
2023-06-04T21:07:42.199Z,53.26
2023-06-04T21:10:45.096Z,53.19
2023-06-04T21:13:47.474Z,53.40
2023-06-04T21:16:50.566Z,53.29
2023-06-04T21:19:52.955Z,53.38
2023-06-04T21:22:55.857Z,53.50
2023-06-04T21:25:58.335Z,53.73
2023-06-04T21:29:01.273Z,54.73
2023-06-04T21:32:03.818Z,53.81
2023-06-04T21:35:07.052Z,53.69
2023-06-04T21:38:09.531Z,54.27
2023-06-04T21:41:12.437Z,53.82
2023-06-04T21:44:14.816Z,53.84
2023-06-04T21:47:18.036Z,54.15
2023-06-04T21:50:20.868Z,54.31
2023-06-04T21:53:24.032Z,54.48
2023-06-04T21:56:27.208Z,55.14
2023-06-04T21:59:30.146Z,54.55
2023-06-04T22:02:32.536Z,54.79
2023-06-04T22:05:36.032Z,54.90
2023-06-04T22:08:38.400Z,55.09
2023-06-04T22:11:41.444Z,55.12
2023-06-04T22:14:44.239Z,54.99
2023-06-04T22:17:47.170Z,54.91
2023-06-04T22:20:49.569Z,54.92
2023-06-04T22:23:52.867Z,55.05
2023-06-04T22:26:55.204Z,55.33
2023-06-04T22:29:58.210Z,55.24
2023-06-04T22:33:00.555Z,55.43
2023-06-04T22:36:03.916Z,55.23
2023-06-04T22:39:06.687Z,55.71
2023-06-04T22:42:09.751Z,55.26
2023-06-04T22:45:12.186Z,55.14
2023-06-04T22:48:15.160Z,55.29
2023-06-04T22:51:18.314Z,55.38
2023-06-04T22:54:21.389Z,55.50
2023-06-04T22:57:25.546Z,56.07
2023-06-04T23:00:28.719Z,55.89
2023-06-04T23:03:31.496Z,56.13
2023-06-04T23:06:34.703Z,55.86
2023-06-04T23:09:37.157Z,55.75
2023-06-04T23:12:40.096Z,55.91
2023-06-04T23:15:42.634Z,56.40
2023-06-04T23:18:45.665Z,56.52
2023-06-04T23:21:48.052Z,56.34
2023-06-04T23:24:50.962Z,55.94
2023-06-04T23:27:53.347Z,56.21
2023-06-04T23:30:56.492Z,55.78
2023-06-04T23:33:58.791Z,55.80
2023-06-04T23:37:02.089Z,56.03
2023-06-04T23:40:05.722Z,56.28
2023-06-04T23:43:08.652Z,56.26
2023-06-04T23:46:11.081Z,56.66
2023-06-04T23:49:14.060Z,57.05
2023-06-04T23:52:17.647Z,57.08
2023-06-04T23:55:20.728Z,57.16
2023-06-04T23:58:23.035Z,57.16
